Time;durP1;ratioP1;P1;durP2;ratioP2;P2;SDS_P1;SDS_P2;PMS_P1;PMS_P2;Temp;Humidity;BMP_temperature;BMP_pressure;BME280_temperature;BME280_humidity;BME280_pressure;Samples;Min_cycle;Max_cycle;Signal;HPM_P1;HPM_P2
2021/05/12 00:00:19;;;;;;;4.18;1.70;;;;;;;14.32;91.88;97090.13;5015132;28;20025;-86
2021/05/12 00:02:45;;;;;;;2.35;1.90;;;;;;;14.40;93.51;97096.72;5015016;28;20025;-88
2021/05/12 00:05:12;;;;;;;3.28;1.77;;;;;;;14.34;92.96;97093.38;5014345;28;20052;-88
2021/05/12 00:07:37;;;;;;;2.42;1.92;;;;;;;14.35;94.99;97099.66;4997957;28;20399;-88
2021/05/12 00:10:06;;;;;;;3.55;2.10;;;;;;;14.20;95.73;97092.84;5003851;28;20026;-87
2021/05/12 00:12:31;;;;;;;3.67;2.20;;;;;;;14.19;97.25;97104.97;5029887;28;20026;-87
2021/05/12 00:14:57;;;;;;;3.78;2.30;;;;;;;14.23;98.33;97097.66;5027166;28;20026;-88
2021/05/12 00:17:22;;;;;;;3.30;2.03;;;;;;;14.20;96.95;97092.84;5030265;28;20030;-88
2021/05/12 00:19:57;;;;;;;3.83;2.33;;;;;;;14.30;96.43;97091.59;5012332;28;20025;-87
2021/05/12 00:22:38;;;;;;;2.97;2.17;;;;;;;14.37;97.16;97097.38;5006384;28;20021;-87
2021/05/12 00:25:06;;;;;;;4.22;1.90;;;;;;;14.34;99.16;97096.13;5008146;28;20021;-86
2021/05/12 00:27:31;;;;;;;3.15;2.17;;;;;;;14.12;98.88;97087.44;5026569;28;20033;-88
2021/05/12 00:29:57;;;;;;;5.35;2.15;;;;;;;14.11;98.91;97088.56;5026041;28;20030;-87
2021/05/12 00:32:22;;;;;;;4.63;2.70;;;;;;;14.22;99.91;97092.50;5022669;28;20030;-87
2021/05/12 00:34:48;;;;;;;3.25;2.00;;;;;;;14.08;100.00;97095.56;5023969;28;20029;-87
2021/05/12 00:37:13;;;;;;;2.85;2.50;;;;;;;14.23;98.10;97094.91;5020921;28;20025;-87
2021/05/12 00:39:39;;;;;;;3.08;2.25;;;;;;;14.20;97.71;97098.34;5003013;28;20438;-87
2021/05/12 00:42:05;;;;;;;3.15;1.73;;;;;;;14.21;97.97;97099.16;5021955;28;20025;-88
2021/05/12 00:44:30;;;;;;;3.10;2.15;;;;;;;14.15;98.42;97106.00;5017841;28;20060;-87
2021/05/12 00:46:55;;;;;;;4.38;1.90;;;;;;;14.13;98.51;97094.53;5015581;28;20061;-86
2021/05/12 00:49:23;;;;;;;2.28;1.83;;;;;;;14.07;99.86;97091.19;4996977;28;20030;-87
2021/05/12 00:51:49;;;;;;;4.35;2.05;;;;;;;13.92;98.96;97076.13;4997034;28;20053;-88
2021/05/12 00:54:14;;;;;;;13.13;2.53;;;;;;;14.02;100.00;97090.59;5013370;28;20541;-88
2021/05/12 00:56:42;;;;;;;2.13;1.77;;;;;;;13.90;100.00;97072.94;5013325;28;20033;-85
2021/05/12 00:59:08;;;;;;;4.13;2.03;;;;;;;14.05;100.00;97071.47;4996410;28;20029;-86
2021/05/12 01:01:34;;;;;;;5.03;2.17;;;;;;;14.10;100.00;97074.00;5012858;28;20022;-86
2021/05/12 01:04:02;;;;;;;2.80;2.38;;;;;;;14.00;100.00;97063.47;5013233;28;20076;-87
2021/05/12 01:06:31;;;;;;;3.25;2.30;;;;;;;13.90;100.00;97061.94;4998276;28;20038;-87
2021/05/12 01:08:56;;;;;;;4.35;2.00;;;;;;;13.88;100.00;97050.47;5014335;28;20521;-86
2021/05/12 01:11:23;;;;;;;3.40;2.13;;;;;;;14.05;100.00;97052.25;5000194;28;20026;-87
2021/05/12 01:13:50;;;;;;;3.20;2.50;;;;;;;14.03;100.00;97042.72;4999801;28;20044;-87
2021/05/12 01:16:17;;;;;;;4.25;2.72;;;;;;;13.98;100.00;97032.72;5015002;28;20022;-86
2021/05/12 01:18:43;;;;;;;4.72;2.75;;;;;;;14.03;100.00;97020.72;5014775;28;20034;-87
2021/05/12 01:21:09;;;;;;;6.03;2.90;;;;;;;14.03;100.00;97012.47;5014334;28;20037;-87
2021/05/12 01:23:38;;;;;;;3.53;2.63;;;;;;;13.99;100.00;97025.28;4998187;28;20064;-87
2021/05/12 01:26:07;;;;;;;2.97;2.67;;;;;;;13.88;100.00;97022.16;4999141;28;20096;-88
2021/05/12 01:28:35;;;;;;;3.10;2.40;;;;;;;13.99;100.00;97017.84;4997757;28;20498;-87
2021/05/12 01:31:08;;;;;;;4.95;2.58;;;;;;;13.97;100.00;97002.84;4999385;28;20048;-87
2021/05/12 01:33:33;;;;;;;2.90;2.25;;;;;;;13.80;100.00;96973.59;4996630;28;20029;-86
2021/05/12 01:35:59;;;;;;;3.63;2.75;;;;;;;13.88;100.00;96975.41;5018754;28;20022;-87
2021/05/12 01:38:26;;;;;;;2.60;2.28;;;;;;;13.83;100.00;96995.69;5019903;28;20025;-87
2021/05/12 01:40:52;;;;;;;6.35;2.22;;;;;;;13.70;100.00;97001.50;5000550;28;20033;-87
2021/05/12 01:43:18;;;;;;;4.40;3.22;;;;;;;13.66;100.00;97011.56;5018474;28;20037;-87
2021/05/12 01:45:43;;;;;;;3.58;2.58;;;;;;;13.61;100.00;97011.78;5000898;28;20097;-88
2021/05/12 01:48:10;;;;;;;2.67;2.47;;;;;;;13.65;100.00;97021.75;5019066;28;20049;-87
2021/05/12 01:50:37;;;;;;;3.22;2.80;;;;;;;13.62;100.00;97030.69;5001131;28;20018;-87
2021/05/12 01:53:03;;;;;;;3.40;2.63;;;;;;;13.68;100.00;97036.78;5000183;28;20105;-87
2021/05/12 01:55:28;;;;;;;4.75;2.97;;;;;;;13.63;100.00;97023.22;5017720;28;20054;-88
2021/05/12 01:57:54;;;;;;;4.50;2.55;;;;;;;13.69;100.00;97019.94;5000637;28;20026;-87
2021/05/12 02:00:24;;;;;;;4.93;2.70;;;;;;;13.60;100.00;97010.16;5016834;28;20013;-87
2021/05/12 02:02:50;;;;;;;7.68;3.10;;;;;;;13.50;100.00;97010.59;5016021;28;20029;-86
2021/05/12 02:05:16;;;;;;;5.28;3.63;;;;;;;13.39;100.00;97015.69;5015883;28;20507;-86
2021/05/12 02:07:42;;;;;;;6.78;3.63;;;;;;;13.43;100.00;97013.88;5016463;28;20107;-87
2021/05/12 02:10:08;;;;;;;3.55;3.08;;;;;;;13.36;100.00;97002.63;5016861;28;20021;-86
2021/05/12 02:12:33;;;;;;;4.85;3.53;;;;;;;13.38;100.00;97003.09;5015532;28;20022;-87
2021/05/12 02:14:59;;;;;;;4.78;3.47;;;;;;;13.44;100.00;97003.72;5016115;28;20034;-87
2021/05/12 02:17:24;;;;;;;3.42;2.85;;;;;;;13.61;100.00;97003.53;4998414;28;20033;-86
2021/05/12 02:19:50;;;;;;;4.50;3.83;;;;;;;13.63;100.00;96996.53;5015485;28;20041;-85
2021/05/12 02:22:15;;;;;;;3.97;2.72;;;;;;;13.71;100.00;97001.16;4997808;28;20117;-86
2021/05/12 02:24:40;;;;;;;5.13;2.75;;;;;;;13.64;100.00;96976.19;5002617;28;20037;-88
2021/05/12 02:27:06;;;;;;;4.50;3.33;;;;;;;13.65;100.00;96983.28;5000223;28;20069;-88
2021/05/12 02:29:32;;;;;;;6.55;3.00;;;;;;;13.61;100.00;96960.38;5017073;28;20032;-87
2021/05/12 02:31:57;;;;;;;3.97;2.65;;;;;;;13.49;100.00;96956.78;4999747;28;20029;-86
2021/05/12 02:34:23;;;;;;;3.78;2.83;;;;;;;13.56;100.00;96957.03;4999830;28;20033;-84
2021/05/12 02:36:48;;;;;;;3.75;3.00;;;;;;;13.45;100.00;96934.66;5000662;28;20023;-87
2021/05/12 02:39:14;;;;;;;3.10;2.80;;;;;;;13.54;100.00;96915.34;5016339;28;20046;-88
2021/05/12 02:41:39;;;;;;;3.50;3.13;;;;;;;13.40;100.00;96921.97;5017137;28;20034;-87
2021/05/12 02:44:05;;;;;;;7.90;4.30;;;;;;;13.32;100.00;96924.78;5011427;28;20041;-87
2021/05/12 02:46:30;;;;;;;5.97;4.30;;;;;;;13.37;100.00;96924.59;5001455;28;20093;-89
2021/05/12 02:48:55;;;;;;;4.10;3.67;;;;;;;13.31;100.00;96918.47;5002006;28;20025;-88
2021/05/12 02:51:21;;;;;;;7.40;4.65;;;;;;;13.35;100.00;96899.38;5007786;28;20022;-86
2021/05/12 02:53:48;;;;;;;10.65;7.90;;;;;;;13.30;100.00;96874.88;5005545;28;20458;-86
2021/05/12 02:56:13;;;;;;;6.20;5.20;;;;;;;13.31;100.00;96873.75;5000977;28;20026;-88
2021/05/12 02:58:39;;;;;;;7.03;4.90;;;;;;;13.32;100.00;96889.88;5018593;28;20560;-88
2021/05/12 03:01:04;;;;;;;7.85;5.90;;;;;;;13.36;100.00;96870.78;4999271;28;20467;-88
2021/05/12 03:03:29;;;;;;;8.80;6.00;;;;;;;13.28;100.00;96846.97;5016303;28;20510;-88
2021/05/12 03:05:55;;;;;;;7.78;6.18;;;;;;;13.32;100.00;96859.66;5020402;28;20084;-88
2021/05/12 03:08:20;;;;;;;7.75;6.00;;;;;;;13.25;100.00;96864.91;5016911;28;20115;-88
2021/05/12 03:10:46;;;;;;;8.30;6.55;;;;;;;13.21;100.00;96887.91;4999111;28;20088;-88
2021/05/12 03:13:12;;;;;;;8.80;6.55;;;;;;;13.13;100.00;96906.06;5015458;28;20060;-89
2021/05/12 03:15:38;;;;;;;8.95;6.32;;;;;;;13.21;100.00;96920.88;5016668;28;20030;-88
2021/05/12 03:18:07;;;;;;;8.15;7.05;;;;;;;13.15;100.00;96920.28;4999677;28;20022;-88
2021/05/12 03:20:33;;;;;;;8.32;6.28;;;;;;;13.25;100.00;96924.56;5016310;28;20057;-88
2021/05/12 03:22:59;;;;;;;10.45;6.82;;;;;;;13.23;100.00;96904.84;5016669;28;20553;-89
2021/05/12 03:25:25;;;;;;;9.45;6.40;;;;;;;13.34;100.00;96911.53;4998260;28;20116;-90
2021/05/12 03:27:51;;;;;;;7.25;6.22;;;;;;;13.43;100.00;96887.53;4999886;28;20520;-87
2021/05/12 03:30:20;;;;;;;15.20;6.25;;;;;;;13.49;100.00;96905.38;4998540;28;20022;-88
2021/05/12 03:32:46;;;;;;;7.90;6.43;;;;;;;13.40;100.00;96882.72;5016427;28;20032;-87
2021/05/12 03:35:11;;;;;;;8.18;6.20;;;;;;;13.40;100.00;96875.28;5002916;28;20049;-87
2021/05/12 03:37:37;;;;;;;9.55;5.95;;;;;;;13.49;100.00;96872.41;5018795;28;20022;-86
2021/05/12 03:40:05;;;;;;;7.13;5.78;;;;;;;13.50;100.00;96893.22;4999551;28;20463;-86
2021/05/12 03:42:30;;;;;;;6.25;5.60;;;;;;;13.43;100.00;96909.50;4999103;28;20085;-87
2021/05/12 03:44:56;;;;;;;6.75;5.50;;;;;;;13.46;100.00;96925.28;4998613;28;20050;-86
2021/05/12 03:47:22;;;;;;;10.00;5.60;;;;;;;13.41;100.00;96929.03;5026183;28;20117;-87
2021/05/12 03:49:48;;;;;;;5.93;5.30;;;;;;;13.34;100.00;96919.78;4998597;28;20521;-86
2021/05/12 03:52:13;;;;;;;7.65;5.35;;;;;;;13.37;100.00;96930.84;5000135;28;20026;-87
2021/05/12 03:54:38;;;;;;;7.00;5.88;;;;;;;13.37;100.00;96927.34;4998141;28;20030;-87
2021/05/12 03:57:04;;;;;;;5.70;5.15;;;;;;;13.41;100.00;96937.28;4998111;28;20034;-87
2021/05/12 03:59:30;;;;;;;10.80;6.05;;;;;;;13.46;100.00;96949.22;4995292;28;20061;-88
2021/05/12 04:01:55;;;;;;;12.55;5.82;;;;;;;13.34;100.00;96941.75;4978778;28;20131;-85
2021/05/12 04:04:21;;;;;;;8.00;6.55;;;;;;;13.29;100.00;96941.94;4995345;28;20034;-86
2021/05/12 04:06:48;;;;;;;6.68;6.03;;;;;;;13.36;100.00;96947.69;4995101;28;20025;-87
2021/05/12 04:09:14;;;;;;;7.63;6.38;;;;;;;13.24;100.00;96945.72;4981086;28;20133;-87
2021/05/12 04:11:41;;;;;;;7.13;5.80;;;;;;;13.21;100.00;96957.38;4978776;28;20035;-87
2021/05/12 04:14:07;;;;;;;9.27;6.50;;;;;;;13.27;100.00;96955.22;4989539;28;20034;-87
2021/05/12 04:16:33;;;;;;;6.13;5.40;;;;;;;13.27;100.00;96957.97;4979069;28;20050;-87
2021/05/12 04:18:59;;;;;;;7.60;5.95;;;;;;;13.22;100.00;96941.66;4983073;28;20030;-88
2021/05/12 04:21:25;;;;;;;9.60;6.85;;;;;;;13.39;100.00;96944.28;4999603;28;20034;-87
2021/05/12 04:23:50;;;;;;;9.02;6.25;;;;;;;13.66;100.00;96953.84;4979320;28;20045;-86
2021/05/12 04:26:15;;;;;;;11.15;5.93;;;;;;;13.68;100.00;96944.13;4996635;28;20034;-87
2021/05/12 04:28:41;;;;;;;7.57;6.88;;;;;;;13.69;100.00;96944.94;4995034;28;20025;-86
2021/05/12 04:31:06;;;;;;;7.47;6.38;;;;;;;13.85;100.00;96943.13;4978775;28;20030;-87
2021/05/12 04:33:32;;;;;;;8.13;6.72;;;;;;;13.64;100.00;96954.19;4999582;28;20030;-86
2021/05/12 04:35:57;;;;;;;8.80;7.03;;;;;;;13.62;100.00;96950.19;4981366;28;20475;-87
2021/05/12 04:38:23;;;;;;;9.77;7.05;;;;;;;13.59;100.00;96957.16;4997186;28;20112;-86
2021/05/12 04:40:48;;;;;;;8.65;7.30;;;;;;;13.54;100.00;96948.31;5014107;28;20014;-87
2021/05/12 04:43:13;;;;;;;11.82;7.75;;;;;;;13.51;100.00;96955.28;5008602;28;20505;-87
2021/05/12 04:45:39;;;;;;;8.52;7.65;;;;;;;13.68;100.00;96946.88;4989839;28;20551;-87
2021/05/12 04:48:04;;;;;;;10.07;8.57;;;;;;;13.70;100.00;96941.03;5013694;28;20025;-87
2021/05/12 04:50:32;;;;;;;9.68;7.65;;;;;;;13.69;100.00;96945.72;5019677;28;20113;-87
2021/05/12 04:52:59;;;;;;;9.95;7.25;;;;;;;13.74;100.00;96944.72;5017586;28;20018;-88
2021/05/12 04:55:24;;;;;;;11.82;6.90;;;;;;;13.77;100.00;96942.09;5011370;28;20080;-86
2021/05/12 04:57:50;;;;;;;8.18;6.82;;;;;;;13.84;100.00;96936.84;5007946;28;20030;-78
2021/05/12 05:00:16;;;;;;;11.93;7.35;;;;;;;13.74;100.00;96912.53;4978016;28;20037;-78
2021/05/12 05:02:42;;;;;;;8.98;6.72;;;;;;;14.03;100.00;96930.78;4986043;28;20079;-76
2021/05/12 05:05:10;;;;;;;9.73;7.15;;;;;;;13.95;100.00;96924.25;5002214;28;20027;-75
2021/05/12 05:07:36;;;;;;;9.52;6.60;;;;;;;13.98;100.00;96911.75;4993457;28;20510;-76
2021/05/12 05:10:02;;;;;;;6.43;5.80;;;;;;;14.05;100.00;96914.75;4994644;28;20025;-76
2021/05/12 05:12:29;;;;;;;9.95;8.02;;;;;;;14.21;100.00;96931.38;5012989;28;20076;-77
2021/05/12 05:14:55;;;;;;;5.90;5.30;;;;;;;14.37;100.00;96926.81;4994051;28;20049;-76
2021/05/12 05:17:21;;;;;;;7.47;6.32;;;;;;;14.52;100.00;96928.03;5010723;28;20022;-75
2021/05/12 05:19:46;;;;;;;7.75;5.60;;;;;;;14.42;100.00;96932.06;4993232;28;20030;-76
2021/05/12 05:22:14;;;;;;;10.40;6.90;;;;;;;14.35;100.00;96946.41;5019968;28;20022;-76
2021/05/12 05:24:39;;;;;;;5.82;5.28;;;;;;;14.48;99.50;96947.19;4983514;28;20414;-78
2021/05/12 05:27:11;;;;;;;6.72;5.10;;;;;;;14.51;99.94;96952.00;5000971;28;20030;-76
2021/05/12 05:29:37;;;;;;;6.35;4.93;;;;;;;14.29;100.00;96941.44;5009526;28;20018;-77
2021/05/12 05:32:03;;;;;;;5.53;4.95;;;;;;;14.32;100.00;96951.75;5017801;28;20036;-78
2021/05/12 05:34:28;;;;;;;5.20;4.70;;;;;;;14.34;100.00;96957.75;5010856;28;20029;-75
2021/05/12 05:36:54;;;;;;;5.55;5.05;;;;;;;14.32;100.00;96949.00;4994816;28;20386;-76
2021/05/12 05:39:19;;;;;;;6.10;5.47;;;;;;;14.32;100.00;96940.75;5014550;28;20026;-78
2021/05/12 05:41:44;;;;;;;6.13;5.25;;;;;;;14.38;100.00;96956.72;4995057;28;20076;-80
2021/05/12 05:44:10;;;;;;;8.57;5.20;;;;;;;14.35;100.00;96953.84;5011391;28;20116;-78
2021/05/12 05:46:38;;;;;;;5.50;5.00;;;;;;;14.40;99.68;96940.69;4995409;28;20148;-81
2021/05/12 05:49:03;;;;;;;6.50;5.72;;;;;;;14.47;100.00;96948.34;5011680;28;20534;-80
2021/05/12 05:51:29;;;;;;;6.00;5.40;;;;;;;14.43;100.00;96958.44;4996829;28;20037;-76
2021/05/12 05:53:55;;;;;;;6.38;5.05;;;;;;;14.37;100.00;96959.81;5011971;28;20124;-75
2021/05/12 05:56:20;;;;;;;6.10;5.35;;;;;;;14.58;99.53;96959.69;4994311;28;20030;-76
2021/05/12 05:58:45;;;;;;;9.80;5.88;;;;;;;14.61;99.01;96945.22;5011358;28;20034;-74
2021/05/12 06:01:11;;;;;;;8.25;5.72;;;;;;;14.75;98.77;96948.44;4995111;28;20033;-76
2021/05/12 06:03:36;;;;;;;8.07;5.32;;;;;;;14.66;98.69;96956.81;4995008;28;20044;-78
2021/05/12 06:06:02;;;;;;;6.07;5.47;;;;;;;14.65;98.25;96954.41;4994884;28;20030;-76
2021/05/12 06:08:27;;;;;;;7.35;5.68;;;;;;;14.60;98.74;96958.19;5012875;28;20054;-75
2021/05/12 06:10:52;;;;;;;7.18;5.63;;;;;;;14.77;98.00;96965.41;5012618;28;20029;-76
2021/05/12 06:13:18;;;;;;;7.93;5.90;;;;;;;14.71;97.50;96959.34;5012842;28;20390;-83
2021/05/12 06:15:43;;;;;;;8.75;5.15;;;;;;;14.87;96.61;96968.50;5008815;28;20368;-82
2021/05/12 06:18:09;;;;;;;10.23;5.05;;;;;;;14.84;97.03;96971.94;4993177;28;20513;-82
2021/05/12 06:20:34;;;;;;;7.38;5.13;;;;;;;14.86;96.81;96972.38;4994757;28;20112;-81
2021/05/12 06:23:01;;;;;;;8.18;5.45;;;;;;;15.08;97.08;96975.78;4991249;28;20034;-78
2021/05/12 06:25:27;;;;;;;7.07;5.45;;;;;;;15.34;95.03;96987.19;5012414;28;20030;-85
2021/05/12 06:27:52;;;;;;;5.50;4.63;;;;;;;15.32;93.23;96967.41;4996951;28;20093;-83
2021/05/12 06:30:18;;;;;;;6.88;4.78;;;;;;;15.40;93.87;96970.06;5012652;28;20053;-82
2021/05/12 06:32:43;;;;;;;6.45;4.88;;;;;;;15.32;92.60;96967.41;4978566;28;20034;-80
2021/05/12 06:35:21;;;;;;;6.32;4.82;;;;;;;15.66;91.26;96960.56;4997817;28;20141;-81
2021/05/12 06:37:46;;;;;;;14.70;12.70;;;;;;;15.83;88.64;96952.75;4974666;28;20076;-84
2021/05/12 06:40:17;;;;;;;15.73;6.45;;;;;;;15.94;87.11;96953.81;4991520;28;20468;-82
2021/05/12 06:42:43;;;;;;;5.63;3.83;;;;;;;15.92;86.02;96938.78;4991275;28;20395;-82
2021/05/12 06:45:12;;;;;;;3.58;2.72;;;;;;;15.99;83.17;96950.81;4974350;28;20058;-84
2021/05/12 06:47:39;;;;;;;5.53;3.25;;;;;;;16.09;84.49;96935.69;4992141;28;20394;-81
2021/05/12 06:50:05;;;;;;;3.95;3.03;;;;;;;16.25;83.91;96944.75;4975134;28;20027;-82
2021/05/12 06:52:30;;;;;;;4.53;3.60;;;;;;;16.14;84.12;96934.59;4975380;28;20031;-82
2021/05/12 06:54:55;;;;;;;4.75;3.47;;;;;;;16.32;84.14;96939.41;4974845;28;20038;-79
2021/05/12 06:57:21;;;;;;;3.28;2.85;;;;;;;16.29;83.13;96940.09;4974560;28;20026;-81
2021/05/12 06:59:46;;;;;;;5.50;3.80;;;;;;;16.18;83.23;96929.97;4996367;28;20026;-80
2021/05/12 07:02:11;;;;;;;5.03;2.92;;;;;;;16.24;82.66;96937.63;4994724;28;20121;-83
2021/05/12 07:04:37;;;;;;;4.75;2.80;;;;;;;16.45;81.73;96942.84;5012633;28;20104;-84
2021/05/12 07:07:02;;;;;;;4.63;3.67;;;;;;;16.43;80.09;96934.16;4994724;28;20060;-80
2021/05/12 07:09:27;;;;;;;3.88;2.72;;;;;;;16.47;80.36;96940.56;4994163;28;20050;-82
2021/05/12 07:11:53;;;;;;;4.80;2.42;;;;;;;16.43;80.34;96961.75;4993842;28;20125;-82
2021/05/12 07:14:18;;;;;;;4.22;2.25;;;;;;;16.27;80.82;96953.47;4993380;28;20076;-81
2021/05/12 07:16:44;;;;;;;2.97;1.98;;;;;;;16.10;81.36;96955.81;5011023;28;20394;-81
2021/05/12 07:19:09;;;;;;;4.97;2.65;;;;;;;15.78;82.36;96953.00;4994198;28;20490;-84
2021/05/12 07:21:35;;;;;;;4.30;2.25;;;;;;;15.67;83.93;96971.22;4993356;28;20457;-82
2021/05/12 07:24:00;;;;;;;5.70;3.00;;;;;;;15.70;84.43;96970.50;4993709;28;20034;-81
2021/05/12 07:26:25;;;;;;;2.63;2.42;;;;;;;15.58;86.24;96975.28;4993637;28;20040;-81
2021/05/12 07:28:52;;;;;;;2.97;2.30;;;;;;;15.54;86.88;96991.72;4993247;28;20029;-81
2021/05/12 07:31:19;;;;;;;4.28;2.75;;;;;;;15.19;89.68;96982.41;4993763;28;20030;-84
2021/05/12 07:33:44;;;;;;;4.53;2.53;;;;;;;15.07;90.90;96960.41;5000564;28;20026;-82
2021/05/12 07:36:10;;;;;;;4.55;3.08;;;;;;;15.17;91.67;96970.91;5011363;28;20064;-83
2021/05/12 07:38:37;;;;;;;6.15;2.20;;;;;;;15.26;93.45;96979.84;4997030;28;20033;-85
2021/05/12 07:41:03;;;;;;;4.40;3.25;;;;;;;15.08;93.04;96968.31;4979459;28;20026;-81
2021/05/12 07:43:29;;;;;;;6.25;3.28;;;;;;;14.95;95.31;96964.78;4996411;28;20501;-83
2021/05/12 07:45:57;;;;;;;3.80;3.47;;;;;;;14.97;94.53;96959.72;4995655;28;20117;-81
2021/05/12 07:48:22;;;;;;;7.20;3.33;;;;;;;15.17;95.44;96959.91;4993747;28;20034;-79
2021/05/12 07:50:47;;;;;;;4.70;3.15;;;;;;;15.57;93.82;96946.91;5011312;28;20398;-80
2021/05/12 07:53:13;;;;;;;6.20;3.55;;;;;;;15.87;92.10;96950.88;4992432;28;20145;-81
2021/05/12 07:55:38;;;;;;;4.47;3.53;;;;;;;16.15;91.36;96938.97;4994747;28;20092;-83
2021/05/12 07:58:05;;;;;;;4.70;3.50;;;;;;;16.55;90.48;96945.91;4993544;28;20064;-81
2021/05/12 08:00:33;;;;;;;3.45;2.17;;;;;;;16.68;87.11;96941.09;5014760;28;20025;-81
2021/05/12 08:02:58;;;;;;;2.17;1.98;;;;;;;16.87;86.74;96934.78;5010910;28;20030;-80
2021/05/12 08:05:24;;;;;;;2.67;2.15;;;;;;;16.57;87.40;96946.34;4993647;28;20117;-81
2021/05/12 08:07:49;;;;;;;2.10;1.88;;;;;;;16.61;85.83;96946.44;4993603;28;20068;-81
2021/05/12 08:10:15;;;;;;;2.40;1.65;;;;;;;16.41;85.88;96958.56;5025501;28;20536;-80
2021/05/12 08:12:40;;;;;;;3.80;1.60;;;;;;;15.91;86.73;96954.53;5010186;28;20030;-82
2021/05/12 08:15:06;;;;;;;2.78;1.55;;;;;;;16.10;86.21;96958.56;4992347;28;20482;-81
2021/05/12 08:17:32;;;;;;;3.58;1.67;;;;;;;16.27;86.79;96970.03;4992531;28;20014;-82
2021/05/12 08:20:00;;;;;;;4.10;1.90;;;;;;;16.14;86.92;96976.00;5009953;28;20393;-83
2021/05/12 08:22:25;;;;;;;1.85;1.52;;;;;;;16.24;87.57;96975.47;4992705;28;20052;-82
2021/05/12 08:24:51;;;;;;;1.85;1.60;;;;;;;16.33;84.24;96984.38;4992109;28;20057;-82
2021/05/12 08:27:16;;;;;;;1.58;1.42;;;;;;;16.22;84.87;96983.31;4992282;28;20068;-82
2021/05/12 08:29:43;;;;;;;4.22;1.73;;;;;;;15.88;86.99;96971.78;5010155;28;20022;-79
2021/05/12 08:32:11;;;;;;;1.92;1.60;;;;;;;16.22;87.86;96964.78;4992486;28;20041;-80
2021/05/12 08:34:37;;;;;;;2.50;2.10;;;;;;;16.03;86.59;96961.94;4992697;28;20045;-81
2021/05/12 08:37:03;;;;;;;1.95;1.70;;;;;;;16.33;86.74;96965.84;4992125;28;20022;-82
2021/05/12 08:39:29;;;;;;;2.53;2.33;;;;;;;16.54;84.45;96960.03;4992768;28;20380;-81
2021/05/12 08:41:55;;;;;;;2.42;1.83;;;;;;;17.33;82.27;96961.44;4991605;28;20057;-80
2021/05/12 08:44:21;;;;;;;1.85;1.70;;;;;;;17.82;80.24;96958.91;4992469;28;20084;-82
2021/05/12 08:46:48;;;;;;;4.85;2.58;;;;;;;17.89;77.83;96961.78;4992612;28;20121;-79
2021/05/12 08:49:16;;;;;;;2.13;1.50;;;;;;;17.96;75.12;96945.31;4991853;28;20032;-80
2021/05/12 08:51:42;;;;;;;1.63;1.25;;;;;;;18.14;74.60;96962.25;4992512;28;20073;-80
2021/05/12 08:54:08;;;;;;;1.83;1.30;;;;;;;17.87;74.00;96961.38;4991884;28;20030;-83
2021/05/12 08:56:33;;;;;;;2.33;1.98;;;;;;;17.52;75.27;96968.94;5008653;28;20040;-81
2021/05/12 08:59:01;;;;;;;1.10;1.08;;;;;;;17.80;74.87;96974.25;4992286;28;20026;-82
2021/05/12 09:01:27;;;;;;;1.85;1.05;;;;;;;17.78;73.29;96966.34;4992265;28;20128;-82
2021/05/12 09:03:52;;;;;;;2.72;1.05;;;;;;;18.39;72.45;96968.19;4992235;28;20108;-82
2021/05/12 09:06:18;;;;;;;2.65;1.40;;;;;;;18.49;70.56;96960.13;4992396;28;20037;-84
2021/05/12 09:08:47;;;;;;;4.00;1.10;;;;;;;18.19;70.44;96962.75;4992534;28;20499;-84
2021/05/12 09:11:12;;;;;;;2.08;1.38;;;;;;;18.42;70.44;96961.94;4992882;28;20026;-83
2021/05/12 09:13:39;;;;;;;1.25;1.10;;;;;;;18.79;69.84;96967.72;4992162;28;20598;-80
2021/05/12 09:16:30;;;;;;;2.58;2.35;;;;;;;18.99;67.66;96975.53;4992424;28;20022;-83
2021/05/12 09:19:10;;;;;;;3.55;1.25;;;;;;;19.37;66.33;96970.88;4992441;28;20038;-82
2021/05/12 09:21:48;;;;;;;1.73;1.02;;;;;;;19.05;67.79;96968.47;5001031;28;20026;-82
2021/05/12 09:24:41;;;;;;;4.28;1.92;;;;;;;19.22;64.96;96956.03;5011216;28;20033;-80
2021/05/12 09:27:12;;;;;;;3.03;1.48;;;;;;;18.76;66.88;96960.13;4972080;28;20046;-81
2021/05/12 09:29:41;;;;;;;2.63;1.02;;;;;;;18.35;68.32;96956.28;5010967;28;20049;-83
2021/05/12 09:32:15;;;;;;;3.33;1.35;;;;;;;18.12;68.75;96954.31;5000895;28;20037;-80
2021/05/12 09:48:25;;;;;;;1.85;1.30;;;;;;;17.41;71.48;96951.34;5004533;28;20081;-79
2021/05/12 10:11:39;;;;;;;3.50;1.17;;;;;;;15.90;81.90;96990.75;4951531;28;20051;-83
2021/05/12 10:14:10;;;;;;;4.03;1.08;;;;;;;15.86;81.95;96981.56;4951708;28;20055;-83
2021/05/12 10:25:08;;;;;;;0.47;0.40;;;;;;;15.38;85.45;96977.06;5686971;23;20060;-81
2021/05/12 10:27:34;;;;;;;1.33;1.05;;;;;;;15.45;87.29;96989.09;5033671;28;20056;-83
2021/05/12 10:30:03;;;;;;;0.73;0.70;;;;;;;15.31;86.00;96985.13;5034436;28;20024;-84
2021/05/12 10:32:33;;;;;;;2.85;0.57;;;;;;;15.52;84.34;96980.25;5030268;28;20429;-84
2021/05/12 10:35:06;;;;;;;0.30;0.30;;;;;;;15.70;83.61;96981.53;5014325;28;20041;-80
2021/05/12 10:37:35;;;;;;;0.77;0.43;;;;;;;15.67;82.97;96985.00;5031272;28;20025;-81
2021/05/12 10:40:07;;;;;;;0.82;0.60;;;;;;;15.65;80.98;96987.31;5014209;28;20608;-82
2021/05/12 10:42:58;;;;;;;0.98;0.57;;;;;;;15.85;81.54;96996.53;5014684;28;20022;-82
2021/05/12 10:45:57;;;;;;;0.65;0.35;;;;;;;16.17;82.07;96994.59;5032037;28;20030;-82
2021/05/12 10:48:39;;;;;;;0.35;0.30;;;;;;;16.16;80.56;96998.53;5032073;28;20053;-81
2021/05/12 10:51:33;;;;;;;1.13;0.43;;;;;;;16.27;78.64;96994.88;5014229;28;20450;-83
2021/05/12 10:54:03;;;;;;;0.52;0.30;;;;;;;16.29;79.98;96994.53;5031307;28;20426;-82
2021/05/12 10:56:41;;;;;;;0.40;0.40;;;;;;;16.26;77.96;96986.94;5014740;28;20056;-80
2021/05/12 10:59:10;;;;;;;0.85;0.30;;;;;;;16.67;78.59;96994.69;5014689;28;20025;-82
2021/05/12 11:01:36;;;;;;;1.00;0.40;;;;;;;16.88;78.63;96998.00;5013865;28;20079;-79
2021/05/12 11:04:01;;;;;;;1.02;0.30;;;;;;;17.03;76.69;96988.84;5012498;28;20033;-80
2021/05/12 11:06:49;;;;;;;0.28;0.20;;;;;;;16.81;75.39;96984.00;5013410;28;20033;-81
2021/05/12 11:09:17;;;;;;;0.60;0.17;;;;;;;16.90;73.62;96987.38;5029659;28;20040;-79
2021/05/12 11:11:48;;;;;;;0.10;0.10;;;;;;;16.84;73.07;96983.28;5030926;28;20143;-81
2021/05/12 11:14:22;;;;;;;0.43;0.30;;;;;;;16.79;74.21;96991.81;5013179;28;20487;-80
2021/05/12 11:17:14;;;;;;;0.82;0.40;;;;;;;16.90;73.29;96992.91;5033017;28;20009;-79
2021/05/12 11:22:43;;;;;;;0.82;0.25;;;;;;;16.76;72.89;96991.78;5050580;28;20105;-81
2021/05/12 11:33:22;;;;;;;0.55;0.30;;;;;;;16.50;72.58;96998.63;5051716;28;20102;-84
2021/05/12 11:35:53;;;;;;;4.55;0.50;;;;;;;16.45;74.32;96979.56;5033123;28;20052;-82
2021/05/12 11:38:19;;;;;;;0.30;0.28;;;;;;;16.54;74.68;96991.25;5054756;28;20021;-83
2021/05/12 11:41:09;;;;;;;0.50;0.30;;;;;;;16.65;75.29;96991.50;5034423;28;20478;-81
2021/05/12 11:43:41;;;;;;;1.13;0.30;;;;;;;16.86;73.36;97005.00;5033655;28;20017;-81
2021/05/12 11:46:08;;;;;;;2.15;0.43;;;;;;;16.88;73.64;96998.00;5032791;28;20032;-81
2021/05/12 11:49:05;;;;;;;0.30;0.30;;;;;;;16.87;72.75;96988.09;5050414;28;20005;-81
2021/05/12 11:51:31;;;;;;;;;;;;;;;17.33;72.49;97000.16;5024639;28;20033;-81
2021/05/12 11:53:58;;;;;;;1.92;0.50;;;;;;;17.60;70.90;96992.84;5032346;28;19967;-79
2021/05/12 11:56:24;;;;;;;0.63;0.50;;;;;;;18.08;70.59;96999.69;5032673;28;20136;-81
2021/05/12 11:58:53;;;;;;;0.40;0.40;;;;;;;18.00;68.09;96993.25;5032277;28;20616;-79
2021/05/12 12:01:19;;;;;;;2.53;0.50;;;;;;;18.28;68.62;97006.00;5050165;28;20024;-81
2021/05/12 12:03:55;;;;;;;1.65;0.75;;;;;;;17.67;68.02;97010.38;5026286;28;20055;-84
2021/05/12 12:06:21;;;;;;;1.33;0.43;;;;;;;17.55;66.93;96993.13;5032333;28;20032;-84
2021/05/12 12:08:48;;;;;;;1.42;0.43;;;;;;;17.12;67.54;96994.16;5049249;28;20017;-80
2021/05/12 12:11:15;;;;;;;3.10;0.50;;;;;;;17.10;68.32;97002.81;5027001;28;20021;-82
2021/05/12 12:13:42;;;;;;;0.77;0.43;;;;;;;16.67;69.42;96994.69;5029375;28;20032;-81
2021/05/12 12:16:09;;;;;;;1.98;0.70;;;;;;;16.37;71.24;97002.63;5022963;28;20029;-78
2021/05/12 12:18:42;;;;;;;0.95;0.50;;;;;;;16.30;71.62;96999.69;5047569;28;20067;-78
2021/05/12 12:21:09;;;;;;;1.52;0.50;;;;;;;16.19;73.84;97012.41;5029964;28;20028;-79
2021/05/12 12:23:37;;;;;;;0.40;0.40;;;;;;;15.67;75.93;97026.34;5029346;28;20527;-79